Time;durP1;ratioP1;P1;durP2;ratioP2;P2;SDS_P1;SDS_P2;PMS_P1;PMS_P2;Temp;Humidity;BMP_temperature;BMP_pressure;BME280_temperature;BME280_humidity;BME280_pressure;Samples;Min_cycle;Max_cycle;Signal;HPM_P1;HPM_P2
2024/04/13 00:00:40;;;;;;;8.47;5.27;;;16.90;99.90;;;;;;5485573;26;20428;-70
2024/04/13 00:03:06;;;;;;;9.18;4.90;;;16.90;99.90;;;;;;5486132;26;20492;-74
2024/04/13 00:05:31;;;;;;;7.35;4.78;;;16.80;99.90;;;;;;5489026;26;20021;-70
2024/04/13 00:07:58;;;;;;;9.52;4.63;;;16.80;99.90;;;;;;5487364;26;20018;-68
2024/04/13 00:10:26;;;;;;;9.73;4.60;;;16.70;99.90;;;;;;5488564;26;19998;-67
2024/04/13 00:12:52;;;;;;;9.38;4.93;;;16.70;99.90;;;;;;5489566;26;20216;-73
2024/04/13 00:15:18;;;;;;;6.78;4.68;;;16.70;99.90;;;;;;5486716;26;20059;-69
2024/04/13 00:17:44;;;;;;;7.68;4.57;;;16.60;99.90;;;;;;5487512;26;19990;-69
2024/04/13 00:20:10;;;;;;;10.00;4.57;;;16.70;99.90;;;;;;5487928;26;20066;-69
2024/04/13 00:22:37;;;;;;;11.53;5.30;;;16.70;99.90;;;;;;5489028;26;20331;-68
2024/04/13 00:25:04;;;;;;;7.85;4.72;;;16.70;99.90;;;;;;5489030;26;20008;-73
2024/04/13 00:27:29;;;;;;;10.20;4.75;;;16.50;99.90;;;;;;5488310;26;20066;-68
2024/04/13 00:29:58;;;;;;;11.97;5.03;;;16.60;99.90;;;;;;5488784;26;20006;-69
2024/04/13 00:32:25;;;;;;;8.07;4.72;;;16.70;99.90;;;;;;5487916;26;20631;-68
2024/04/13 00:34:52;;;;;;;8.35;4.43;;;16.50;99.90;;;;;;5488619;26;20001;-69
2024/04/13 00:37:18;;;;;;;8.00;4.53;;;16.70;99.90;;;;;;5487800;26;20018;-69
2024/04/13 00:39:44;;;;;;;11.37;4.70;;;16.40;99.90;;;;;;5489045;26;20039;-67
2024/04/13 00:42:10;;;;;;;9.65;4.82;;;16.50;99.90;;;;;;5487446;26;20688;-69
2024/04/13 00:44:36;;;;;;;15.20;4.70;;;16.50;99.90;;;;;;5487354;26;20332;-67
2024/04/13 00:47:05;;;;;;;5.57;4.43;;;16.60;99.90;;;;;;5488884;26;20030;-70
2024/04/13 00:49:38;;;;;;;6.90;4.43;;;16.60;99.90;;;;;;5488812;26;19998;-66
2024/04/13 00:52:11;;;;;;;9.07;4.97;;;16.50;99.90;;;;;;5457306;26;19986;-75
2024/04/13 00:54:39;;;;;;;7.38;4.20;;;16.50;99.90;;;;;;5486991;26;19994;-69
2024/04/13 00:57:07;;;;;;;7.68;4.95;;;16.50;99.90;;;;;;5486171;26;20354;-74
2024/04/13 00:59:34;;;;;;;10.18;4.95;;;16.70;99.90;;;;;;5486473;26;20067;-68
2024/04/13 01:02:04;;;;;;;8.32;4.60;;;16.60;99.90;;;;;;5488183;26;20452;-71
2024/04/13 01:04:29;;;;;;;8.07;4.68;;;16.60;99.90;;;;;;5487686;26;20005;-67
2024/04/13 01:06:57;;;;;;;9.43;4.60;;;16.50;99.90;;;;;;5486800;26;20392;-67
2024/04/13 01:09:23;;;;;;;8.57;4.60;;;16.60;99.90;;;;;;5485517;26;20455;-70
2024/04/13 01:11:49;;;;;;;10.18;5.25;;;16.60;99.90;;;;;;5488421;26;19994;-69
2024/04/13 01:14:15;;;;;;;10.18;4.68;;;16.70;99.90;;;;;;5485751;26;20420;-67
2024/04/13 01:16:43;;;;;;;9.63;4.88;;;16.50;99.90;;;;;;5488285;26;20332;-69
2024/04/13 01:19:11;;;;;;;6.35;4.68;;;16.60;99.90;;;;;;5485152;26;20004;-73
2024/04/13 01:21:39;;;;;;;5.53;4.30;;;16.70;99.90;;;;;;5487976;26;19998;-68
2024/04/13 01:24:05;;;;;;;9.52;4.18;;;16.70;99.90;;;;;;5488033;26;19994;-69
2024/04/13 01:26:38;;;;;;;8.32;5.00;;;16.60;99.90;;;;;;5487370;26;19998;-69
2024/04/13 01:29:05;;;;;;;10.18;4.43;;;16.50;99.90;;;;;;5487825;26;20022;-69
2024/04/13 01:31:36;;;;;;;6.68;4.93;;;16.50;99.90;;;;;;5487520;26;19998;-68
2024/04/13 01:34:02;;;;;;;7.15;4.60;;;16.60;99.90;;;;;;5486177;26;20338;-71
2024/04/13 01:36:35;;;;;;;7.65;4.88;;;16.60;99.90;;;;;;5486829;26;20129;-69
2024/04/13 01:39:03;;;;;;;6.88;4.65;;;16.60;99.90;;;;;;5487450;26;20067;-69
2024/04/13 01:41:29;;;;;;;7.15;4.30;;;16.70;99.90;;;;;;5486622;26;20051;-68
2024/04/13 01:43:56;;;;;;;10.25;5.07;;;16.60;99.90;;;;;;5485710;26;19995;-70
2024/04/13 01:46:22;;;;;;;6.20;4.13;;;16.60;99.90;;;;;;5486520;26;20001;-70
2024/04/13 01:48:47;;;;;;;6.47;4.60;;;16.60;99.90;;;;;;5487732;26;19995;-70
2024/04/13 01:51:13;;;;;;;6.57;4.70;;;16.60;99.90;;;;;;5486845;26;19994;-70
2024/04/13 01:53:39;;;;;;;10.98;4.47;;;16.40;99.90;;;;;;5485802;26;20005;-69
2024/04/13 01:56:05;;;;;;;6.97;4.47;;;16.60;99.90;;;;;;5487885;26;20004;-70
2024/04/13 01:58:31;;;;;;;6.50;4.85;;;16.50;99.90;;;;;;5487010;26;20013;-70
2024/04/13 02:00:57;;;;;;;6.75;4.88;;;16.60;99.90;;;;;;5489920;26;19998;-69
2024/04/13 02:03:22;;;;;;;7.60;4.50;;;16.60;99.90;;;;;;5488239;26;20002;-69
2024/04/13 02:05:48;;;;;;;9.33;4.67;;;16.50;99.90;;;;;;5487526;26;20003;-69
2024/04/13 02:08:14;;;;;;;12.30;4.85;;;16.60;99.90;;;;;;5486279;26;20002;-69
2024/04/13 02:10:40;;;;;;;11.25;4.80;;;16.60;99.90;;;;;;5485913;26;19994;-69
2024/04/13 02:13:06;;;;;;;11.65;5.10;;;16.60;99.90;;;;;;5485912;26;19994;-69
2024/04/13 02:15:32;;;;;;;7.63;4.47;;;16.50;99.90;;;;;;5486435;26;20384;-70
2024/04/13 02:17:58;;;;;;;7.67;4.30;;;16.60;99.90;;;;;;5487265;26;20001;-70
2024/04/13 02:20:23;;;;;;;8.73;4.80;;;16.60;99.90;;;;;;5488282;26;20327;-70
2024/04/13 02:22:49;;;;;;;9.13;4.37;;;16.60;99.90;;;;;;5490109;26;20005;-70
2024/04/13 02:25:15;;;;;;;6.18;4.82;;;16.50;99.90;;;;;;5490166;26;20006;-70
2024/04/13 02:27:41;;;;;;;7.37;4.23;;;16.60;99.90;;;;;;5490763;26;20462;-69
2024/04/13 02:30:08;;;;;;;8.88;5.15;;;16.60;99.90;;;;;;5481831;26;19995;-71
2024/04/13 02:32:33;;;;;;;6.53;4.70;;;15.00;99.90;;;;;;5453825;26;19998;-70
2024/04/13 02:34:59;;;;;;;8.43;5.30;;;16.50;99.90;;;;;;5452824;26;20009;-69
2024/04/13 02:37:25;;;;;;;8.15;4.75;;;16.70;99.90;;;;;;5453268;26;20448;-68
2024/04/13 02:39:51;;;;;;;9.43;4.68;;;16.40;99.90;;;;;;5454249;26;20084;-68
2024/04/13 02:42:17;;;;;;;8.50;4.57;;;16.40;99.90;;;;;;5451070;26;19999;-69
2024/04/13 02:44:42;;;;;;;5.15;4.38;;;16.40;99.90;;;;;;5454021;26;19999;-68
2024/04/13 02:47:08;;;;;;;6.95;4.88;;;16.50;99.90;;;;;;5453806;26;19994;-67
2024/04/13 02:49:34;;;;;;;9.63;4.90;;;16.30;99.90;;;;;;5452959;26;19999;-68
2024/04/13 02:51:59;;;;;;;7.03;4.65;;;16.40;99.90;;;;;;5451860;26;19995;-69
2024/04/13 02:54:25;;;;;;;12.80;4.80;;;16.40;99.90;;;;;;5451169;26;19994;-69
2024/04/13 02:56:51;;;;;;;7.85;4.35;;;16.50;99.90;;;;;;5479769;26;20638;-69
2024/04/13 02:59:17;;;;;;;7.47;4.17;;;16.40;99.90;;;;;;5489410;26;20356;-68
2024/04/13 03:01:43;;;;;;;8.93;4.53;;;16.40;99.90;;;;;;5490614;26;19994;-70
2024/04/13 03:04:10;;;;;;;11.30;4.93;;;16.30;99.90;;;;;;5490126;26;19997;-69
2024/04/13 03:06:36;;;;;;;9.25;4.63;;;16.30;99.90;;;;;;5489232;26;19994;-68
2024/04/13 03:09:02;;;;;;;7.60;4.63;;;16.30;99.90;;;;;;5490446;26;19998;-70
2024/04/13 03:11:28;;;;;;;11.13;5.47;;;16.20;99.90;;;;;;5487279;26;20017;-70
2024/04/13 03:13:53;;;;;;;7.45;4.80;;;16.40;99.90;;;;;;5488336;26;20066;-70
2024/04/13 03:16:21;;;;;;;9.07;4.63;;;16.30;99.90;;;;;;5488781;26;20059;-70
2024/04/13 03:18:47;;;;;;;7.47;4.60;;;16.30;99.90;;;;;;5490138;26;19994;-69
2024/04/13 03:21:13;;;;;;;10.75;4.93;;;16.30;99.90;;;;;;5489576;26;20060;-76
2024/04/13 03:23:40;;;;;;;7.68;4.55;;;16.30;99.90;;;;;;5487973;26;20488;-71
2024/04/13 03:26:06;;;;;;;8.18;5.00;;;16.20;99.90;;;;;;5489841;26;20071;-69
2024/04/13 03:28:34;;;;;;;8.25;4.90;;;16.40;99.90;;;;;;5450272;26;20003;-70
2024/04/13 03:31:01;;;;;;;8.70;5.00;;;16.20;99.90;;;;;;5452398;26;19999;-70
2024/04/13 03:33:27;;;;;;;10.65;4.95;;;16.20;99.90;;;;;;5452252;26;20304;-71
2024/04/13 03:35:53;;;;;;;7.97;4.25;;;16.20;99.90;;;;;;5453609;26;20066;-69
2024/04/13 03:38:19;;;;;;;7.25;4.47;;;16.30;99.90;;;;;;5452458;26;19995;-70
2024/04/13 03:40:46;;;;;;;8.80;4.75;;;16.30;99.90;;;;;;5451475;26;19999;-70
2024/04/13 03:43:14;;;;;;;8.25;4.40;;;16.20;99.90;;;;;;5453007;26;20063;-75
2024/04/13 03:45:41;;;;;;;9.30;4.70;;;16.20;99.90;;;;;;5453146;26;20063;-69
2024/04/13 03:48:07;;;;;;;8.73;4.50;;;16.30;99.90;;;;;;5453374;26;20389;-70
2024/04/13 03:50:39;;;;;;;6.87;4.53;;;16.30;99.90;;;;;;5452155;26;19999;-70
2024/04/13 03:53:05;;;;;;;7.40;4.15;;;16.20;99.90;;;;;;5452729;26;19991;-69
2024/04/13 03:55:31;;;;;;;8.77;4.65;;;16.30;99.90;;;;;;5452806;26;19998;-70
2024/04/13 03:57:57;;;;;;;6.57;4.53;;;16.30;99.90;;;;;;5512389;26;20068;-69
2024/04/13 04:00:22;;;;;;;10.43;5.07;;;16.20;99.90;;;;;;5451953;26;20006;-70
2024/04/13 04:02:48;;;;;;;12.32;5.05;;;16.20;99.90;;;;;;5453129;26;20345;-68
2024/04/13 04:05:14;;;;;;;10.53;5.03;;;16.30;99.90;;;;;;5452822;26;20347;-73
2024/04/13 04:07:40;;;;;;;9.50;4.70;;;16.40;99.90;;;;;;5452719;26;20505;-68
2024/04/13 04:10:06;;;;;;;8.20;4.50;;;16.20;99.90;;;;;;5452771;26;19998;-70
2024/04/13 04:12:31;;;;;;;9.17;4.63;;;16.20;99.90;;;;;;5511243;26;19998;-69
2024/04/13 04:14:57;;;;;;;9.77;4.90;;;16.10;99.90;;;;;;5511946;26;19990;-70
2024/04/13 04:17:23;;;;;;;6.72;4.65;;;16.20;99.90;;;;;;5450470;26;19999;-71
2024/04/13 04:19:49;;;;;;;8.20;4.27;;;16.20;99.90;;;;;;5512412;26;19990;-70
2024/04/13 04:22:14;;;;;;;7.93;4.67;;;16.10;99.90;;;;;;5452614;26;20003;-76
2024/04/13 04:24:40;;;;;;;7.88;4.05;;;16.10;99.90;;;;;;5511974;26;19995;-71
2024/04/13 04:27:06;;;;;;;7.90;4.63;;;16.10;99.90;;;;;;5511606;26;20006;-69
2024/04/13 04:29:33;;;;;;;10.18;4.30;;;16.10;99.90;;;;;;5451121;26;20344;-69
2024/04/13 04:31:59;;;;;;;9.95;4.32;;;16.10;99.90;;;;;;5450876;26;20444;-68
2024/04/13 04:34:24;;;;;;;6.93;4.50;;;16.10;99.90;;;;;;5451386;26;20040;-70
2024/04/13 04:36:51;;;;;;;6.83;4.07;;;16.10;99.90;;;;;;5452539;26;20068;-69
2024/04/13 04:39:17;;;;;;;8.77;4.38;;;16.10;99.90;;;;;;5451700;26;20325;-73
2024/04/13 04:41:44;;;;;;;9.00;4.68;;;16.10;99.90;;;;;;5484652;26;19998;-69
2024/04/13 04:44:10;;;;;;;7.32;4.55;;;16.20;99.90;;;;;;5489015;26;19994;-68
2024/04/13 04:46:36;;;;;;;12.73;4.40;;;16.20;99.90;;;;;;5487559;26;20039;-68
2024/04/13 04:49:04;;;;;;;7.38;4.28;;;16.20;99.90;;;;;;5456556;26;20030;-68
2024/04/13 04:51:30;;;;;;;10.45;4.63;;;16.10;99.90;;;;;;5486094;26;20005;-69
2024/04/13 04:53:56;;;;;;;7.43;4.37;;;16.10;99.90;;;;;;5488653;26;20388;-69
2024/04/13 04:56:23;;;;;;;8.37;4.47;;;16.10;99.90;;;;;;5487755;26;20006;-70
2024/04/13 04:58:51;;;;;;;;;;;16.20;99.90;;;;;;5489224;26;19990;-69
2024/04/13 05:01:16;;;;;;;5.90;4.03;;;16.10;99.90;;;;;;5482253;26;19948;-74
2024/04/13 05:03:42;;;;;;;6.05;3.72;;;16.20;99.90;;;;;;5451687;26;20048;-70
2024/04/13 05:06:08;;;;;;;7.83;4.40;;;16.20;99.90;;;;;;5452347;26;20371;-69
2024/04/13 05:08:34;;;;;;;10.07;4.47;;;16.10;99.90;;;;;;5451179;26;20010;-69
2024/04/13 05:11:00;;;;;;;7.27;4.17;;;16.20;99.90;;;;;;5451897;26;20432;-70
2024/04/13 05:13:25;;;;;;;5.77;4.40;;;16.30;99.90;;;;;;5486850;26;19998;-70
2024/04/13 05:15:51;;;;;;;7.07;3.93;;;16.20;99.90;;;;;;5488449;26;19994;-70
2024/04/13 05:18:17;;;;;;;6.95;3.90;;;16.20;99.90;;;;;;5486466;26;19994;-75
2024/04/13 05:20:45;;;;;;;8.07;4.57;;;16.10;99.90;;;;;;5485735;26;19998;-70
2024/04/13 05:23:11;;;;;;;8.82;4.03;;;16.30;99.90;;;;;;5487768;26;20070;-69
2024/04/13 05:25:36;;;;;;;8.27;4.25;;;16.30;99.90;;;;;;5486941;26;20006;-67
2024/04/13 05:28:02;;;;;;;7.10;3.88;;;16.30;99.90;;;;;;5486110;26;19994;-69
2024/04/13 05:30:28;;;;;;;8.87;4.80;;;16.30;99.90;;;;;;5486704;26;19990;-69
2024/04/13 05:32:54;;;;;;;11.95;4.82;;;16.20;99.90;;;;;;5485808;26;19998;-68
2024/04/13 05:35:20;;;;;;;7.30;4.40;;;16.40;99.90;;;;;;5487321;26;20016;-73
2024/04/13 05:37:46;;;;;;;8.35;4.10;;;16.30;99.90;;;;;;5487787;26;20070;-68
2024/04/13 05:40:13;;;;;;;6.97;4.63;;;16.30;99.90;;;;;;5485405;26;20479;-69
2024/04/13 05:42:39;;;;;;;8.38;3.80;;;16.30;99.90;;;;;;5486449;26;19994;-67
2024/04/13 05:45:06;;;;;;;7.35;3.90;;;16.30;99.90;;;;;;5488129;26;19997;-67
2024/04/13 05:47:32;;;;;;;7.35;4.53;;;16.40;99.90;;;;;;5485393;26;20016;-68
2024/04/13 05:49:59;;;;;;;9.15;4.30;;;16.50;99.90;;;;;;5487799;26;20002;-68
2024/04/13 05:52:24;;;;;;;9.13;4.60;;;16.50;99.90;;;;;;5485431;26;19998;-69
2024/04/13 05:54:50;;;;;;;7.32;4.47;;;16.30;99.90;;;;;;5484952;26;19998;-66
2024/04/13 05:57:16;;;;;;;7.03;4.38;;;16.50;99.90;;;;;;5487959;26;20508;-67
2024/04/13 05:59:42;;;;;;;8.27;4.53;;;16.40;99.90;;;;;;5486685;26;20048;-68
2024/04/13 06:02:08;;;;;;;8.55;4.07;;;16.50;99.90;;;;;;5488024;26;20006;-70
2024/04/13 06:04:35;;;;;;;10.25;4.20;;;16.70;99.90;;;;;;5486466;26;19998;-70
2024/04/13 06:07:01;;;;;;;5.72;4.05;;;16.40;99.90;;;;;;5487340;26;20006;-65
2024/04/13 06:09:27;;;;;;;7.38;3.90;;;16.40;99.90;;;;;;5484406;26;20025;-67
2024/04/13 06:11:53;;;;;;;8.27;3.90;;;16.50;99.90;;;;;;5487573;26;20412;-68
2024/04/13 06:14:19;;;;;;;8.05;3.50;;;16.40;99.90;;;;;;5485228;26;20431;-76
2024/04/13 06:16:45;;;;;;;7.68;3.92;;;16.50;99.90;;;;;;5486104;26;20009;-69
2024/04/13 06:19:13;;;;;;;9.70;4.40;;;16.50;99.90;;;;;;5485567;26;20087;-67
2024/04/13 06:21:39;;;;;;;7.72;4.07;;;16.70;99.90;;;;;;5485510;26;19994;-67
2024/04/13 06:24:05;;;;;;;4.60;3.58;;;16.60;99.90;;;;;;5486660;26;20072;-70
2024/04/13 06:26:31;;;;;;;5.95;3.90;;;16.70;99.90;;;;;;5485459;26;20002;-69
2024/04/13 06:28:57;;;;;;;5.35;4.10;;;16.60;99.90;;;;;;5486615;26;20006;-68
2024/04/13 06:31:23;;;;;;;5.40;4.05;;;16.60;99.90;;;;;;5484097;26;19994;-72
2024/04/13 06:33:49;;;;;;;6.57;4.07;;;16.70;99.90;;;;;;5486465;26;20038;-68
2024/04/13 06:36:15;;;;;;;7.03;4.07;;;16.70;99.90;;;;;;5486640;26;19994;-68
2024/04/13 06:38:42;;;;;;;6.82;4.00;;;16.80;99.90;;;;;;5447392;26;20692;-70
2024/04/13 06:41:07;;;;;;;6.27;3.40;;;16.90;99.90;;;;;;5450283;26;20007;-70
2024/04/13 06:43:33;;;;;;;7.68;4.10;;;16.90;99.90;;;;;;5449430;26;20749;-68
2024/04/13 06:45:59;;;;;;;6.93;4.30;;;17.00;99.90;;;;;;5448412;26;20068;-68
2024/04/13 06:48:25;;;;;;;8.20;4.23;;;17.00;99.90;;;;;;5448968;26;20026;-71
2024/04/13 06:50:51;;;;;;;6.50;3.70;;;17.10;99.90;;;;;;5449594;26;20010;-68
2024/04/13 06:53:16;;;;;;;7.03;3.70;;;17.20;99.90;;;;;;5450383;26;20514;-67
2024/04/13 06:55:42;;;;;;;10.00;3.92;;;17.00;99.90;;;;;;5448998;26;20651;-65
2024/04/13 06:58:09;;;;;;;10.15;3.70;;;17.20;99.90;;;;;;5447973;26;20005;-68
2024/04/13 07:00:35;;;;;;;5.82;4.07;;;17.20;99.90;;;;;;5448729;26;19991;-69
2024/04/13 07:03:02;;;;;;;7.03;3.92;;;17.20;99.90;;;;;;5447473;26;19998;-68
2024/04/13 07:05:27;;;;;;;5.47;3.88;;;17.30;99.90;;;;;;5387139;26;20006;-69
2024/04/13 07:07:53;;;;;;;7.10;3.97;;;17.20;99.90;;;;;;5452764;26;20043;-68
2024/04/13 07:10:19;;;;;;;8.35;4.38;;;17.40;99.90;;;;;;5451499;26;20470;-69
2024/04/13 07:12:45;;;;;;;5.07;3.70;;;17.40;99.90;;;;;;5451779;26;20597;-70
2024/04/13 07:15:11;;;;;;;6.30;3.42;;;17.40;99.90;;;;;;5484598;26;20043;-67
2024/04/13 07:17:37;;;;;;;7.00;3.33;;;17.50;99.90;;;;;;5488452;26;20439;-70
2024/04/13 07:20:07;;;;;;;5.25;3.75;;;17.70;99.90;;;;;;5489747;26;19994;-68
2024/04/13 07:22:33;;;;;;;11.00;4.28;;;17.60;99.90;;;;;;5487961;26;20005;-67
2024/04/13 07:25:00;;;;;;;5.57;3.50;;;17.60;99.90;;;;;;5489455;26;20016;-67
2024/04/13 07:27:26;;;;;;;6.23;3.20;;;17.70;99.90;;;;;;5488675;26;20415;-71
2024/04/13 07:29:51;;;;;;;6.40;3.20;;;17.80;99.90;;;;;;5487714;26;19990;-71
2024/04/13 07:32:17;;;;;;;4.70;3.03;;;17.80;99.90;;;;;;5488655;26;20129;-67
2024/04/13 07:34:43;;;;;;;5.07;2.67;;;17.90;99.90;;;;;;5456221;26;20079;-70
2024/04/13 07:37:10;;;;;;;4.47;3.30;;;18.00;99.90;;;;;;5489160;26;20385;-66
2024/04/13 07:39:35;;;;;;;4.85;3.20;;;18.10;99.90;;;;;;5485924;26;20013;-67
2024/04/13 07:42:01;;;;;;;5.45;3.03;;;18.10;99.90;;;;;;5484881;26;20694;-70
2024/04/13 07:44:27;;;;;;;4.53;3.20;;;18.20;99.90;;;;;;5487219;26;20001;-72
2024/04/13 07:46:53;;;;;;;5.90;3.65;;;20.00;99.90;;;;;;5489021;26;20105;-70
2024/04/13 07:49:20;;;;;;;3.80;2.87;;;18.30;99.90;;;;;;5486663;26;20339;-69
2024/04/13 07:51:47;;;;;;;7.32;3.40;;;18.30;99.90;;;;;;5486840;26;20006;-71
2024/04/13 07:54:13;;;;;;;;;;;18.40;99.90;;;;;;5488355;26;20483;-68
2024/04/13 07:56:39;;;;;;;6.53;3.33;;;18.40;99.90;;;;;;5486050;26;19931;-71
2024/04/13 07:59:05;;;;;;;7.53;3.20;;;18.70;99.90;;;;;;5489175;26;20311;-70
2024/04/13 08:01:31;;;;;;;6.07;3.10;;;18.60;99.90;;;;;;5485953;26;20420;-72
2024/04/13 08:03:57;;;;;;;5.82;3.88;;;18.70;99.90;;;;;;5488828;26;19993;-68
2024/04/13 08:06:25;;;;;;;5.40;3.00;;;18.70;99.90;;;;;;5487298;26;19990;-70
2024/04/13 08:08:50;;;;;;;4.78;3.20;;;18.80;99.90;;;;;;5449975;26;20019;-70
2024/04/13 08:11:16;;;;;;;6.60;2.90;;;18.70;99.90;;;;;;5452204;26;19991;-70
2024/04/13 08:13:42;;;;;;;6.32;3.10;;;19.00;99.90;;;;;;5451213;26;19999;-69
2024/04/13 08:16:08;;;;;;;4.72;3.00;;;19.00;99.90;;;;;;5481683;26;20006;-69
2024/04/13 08:18:34;;;;;;;5.03;4.07;;;19.00;99.90;;;;;;5486928;26;20009;-69
2024/04/13 08:21:00;;;;;;;8.23;3.20;;;19.10;99.90;;;;;;5481451;26;19998;-69
2024/04/13 08:23:25;;;;;;;7.18;3.17;;;19.20;99.90;;;;;;5479311;26;20005;-76
2024/04/13 08:25:51;;;;;;;5.60;2.88;;;19.00;99.90;;;;;;5470112;26;20002;-68
2024/04/13 08:28:17;;;;;;;8.32;3.53;;;19.30;99.90;;;;;;5486237;26;19994;-69
2024/04/13 08:30:43;;;;;;;3.95;2.95;;;19.60;99.90;;;;;;5484790;26;20102;-68
2024/04/13 08:33:08;;;;;;;7.70;3.05;;;19.40;99.90;;;;;;5487685;26;19998;-69
2024/04/13 08:35:34;;;;;;;7.43;3.30;;;19.30;99.90;;;;;;5485054;26;19994;-69
2024/04/13 08:38:00;;;;;;;5.07;2.97;;;19.40;99.90;;;;;;5479633;26;20317;-69
2024/04/13 08:40:26;;;;;;;5.37;3.07;;;19.50;99.90;;;;;;5487733;26;20009;-75
2024/04/13 08:43:00;;;;;;;4.00;3.07;;;19.40;99.90;;;;;;5475784;26;19998;-70
2024/04/13 08:45:27;;;;;;;7.65;3.15;;;19.60;99.90;;;;;;5478545;26;20006;-74
2024/04/13 08:47:54;;;;;;;6.07;2.97;;;19.80;99.90;;;;;;5451293;26;20008;-67
2024/04/13 08:50:21;;;;;;;5.53;3.25;;;19.70;99.90;;;;;;5448806;26;20010;-70
2024/04/13 08:52:49;;;;;;;5.22;2.80;;;19.80;99.90;;;;;;5449715;26;19991;-68
2024/04/13 08:55:16;;;;;;;5.45;2.60;;;20.00;99.90;;;;;;5459808;26;20079;-68
2024/04/13 08:57:42;;;;;;;5.20;3.10;;;19.90;99.90;;;;;;5486582;26;20009;-71
2024/04/13 09:00:16;;;;;;;5.38;2.97;;;19.90;99.90;;;;;;5485622;26;19998;-68
2024/04/13 09:02:48;;;;;;;6.28;3.20;;;20.00;99.90;;;;;;5485549;26;20426;-67
2024/04/13 09:05:15;;;;;;;7.57;2.75;;;20.10;99.90;;;;;;5486212;26;20005;-67
2024/04/13 09:07:41;;;;;;;;;;;20.10;99.90;;;;;;5486934;26;20001;-68
2024/04/13 09:10:09;;;;;;;4.85;2.72;;;20.20;99.90;;;;;;5487343;26;20219;-67
2024/04/13 09:12:35;;;;;;;3.78;2.70;;;20.10;99.90;;;;;;5486475;26;19997;-67
2024/04/13 09:15:02;;;;;;;3.22;2.78;;;20.10;99.90;;;;;;5483472;26;20002;-72
2024/04/13 09:17:31;;;;;;;4.78;3.15;;;20.30;99.90;;;;;;5475132;26;20013;-72
2024/04/13 09:20:07;;;;;;;6.43;2.95;;;20.40;99.90;;;;;;5469725;26;20043;-67
2024/04/13 09:22:34;;;;;;;5.35;3.65;;;20.30;99.90;;;;;;5485208;26;20009;-67
2024/04/13 09:25:00;;;;;;;;;;;20.50;99.90;;;;;;5484323;26;19998;-68
2024/04/13 09:27:28;;;;;;;5.07;2.70;;;20.60;99.90;;;;;;5486990;26;19932;-67
2024/04/13 09:30:08;;;;;;;6.07;2.90;;;20.50;99.90;;;;;;5485489;26;19994;-69
2024/04/13 09:32:34;;;;;;;6.15;2.63;;;20.50;99.90;;;;;;5478154;26;20033;-69
2024/04/13 09:35:12;;;;;;;4.97;2.83;;;22.50;99.90;;;;;;5451396;26;20002;-67
2024/04/13 09:37:39;;;;;;;8.40;2.60;;;20.70;99.90;;;;;;5508804;26;20344;-69
2024/04/13 09:40:06;;;;;;;4.47;2.85;;;20.80;99.90;;;;;;5450683;26;20010;-66
2024/04/13 09:42:33;;;;;;;5.20;2.88;;;20.90;99.90;;;;;;5478899;26;20003;-69
2024/04/13 09:45:11;;;;;;;;;;;21.10;99.90;;;;;;5487950;26;19994;-66
2024/04/13 09:47:37;;;;;;;4.32;2.90;;;21.00;99.90;;;;;;5485450;26;20031;-68
2024/04/13 09:50:03;;;;;;;7.95;3.20;;;21.00;99.90;;;;;;5486583;26;20440;-70
2024/04/13 09:52:31;;;;;;;8.75;2.67;;;21.20;99.90;;;;;;5486931;26;20066;-71
2024/04/13 09:54:59;;;;;;;7.13;3.00;;;21.20;99.90;;;;;;5486303;26;20005;-68
2024/04/13 09:57:25;;;;;;;6.05;3.20;;;21.10;99.90;;;;;;5486322;26;19994;-66
2024/04/13 09:59:52;;;;;;;5.53;3.30;;;20.90;99.90;;;;;;5484894;26;19995;-68
2024/04/13 10:02:18;;;;;;;5.07;3.00;;;21.00;99.90;;;;;;5485079;26;19990;-73
2024/04/13 10:04:44;;;;;;;7.03;2.80;;;21.40;99.90;;;;;;5484944;26;19994;-68
2024/04/13 10:07:11;;;;;;;7.15;3.05;;;21.30;99.90;;;;;;5484533;26;20512;-69
2024/04/13 10:09:56;;;;;;;5.75;2.95;;;21.30;99.90;;;;;;5484854;26;19995;-68
2024/04/13 10:12:29;;;;;;;7.07;3.03;;;21.30;99.90;;;;;;5483654;26;20005;-68
2024/04/13 10:14:58;;;;;;;5.05;2.80;;;21.30;99.90;;;;;;5485425;26;20022;-69
2024/04/13 10:17:25;;;;;;;5.47;2.65;;;21.20;99.90;;;;;;5454068;26;19993;-69
2024/04/13 10:19:50;;;;;;;;;;;21.40;99.90;;;;;;5484460;26;20013;-71
2024/04/13 10:22:19;;;;;;;5.72;3.10;;;21.40;99.90;;;;;;5483077;26;19928;-70
2024/04/13 10:24:45;;;;;;;5.63;3.10;;;21.40;99.90;;;;;;5482774;26;20108;-67
2024/04/13 10:27:12;;;;;;;4.53;2.92;;;21.50;99.90;;;;;;5482248;26;19994;-68
2024/04/13 10:29:44;;;;;;;4.63;2.83;;;21.70;99.90;;;;;;5482053;26;20385;-68
2024/04/13 10:32:17;;;;;;;5.63;3.28;;;21.50;99.90;;;;;;5461303;26;19999;-69
2024/04/13 10:34:44;;;;;;;6.22;2.90;;;21.70;99.90;;;;;;5444998;26;19999;-68
2024/04/13 10:37:26;;;;;;;5.43;3.05;;;21.80;99.90;;;;;;5448755;26;19995;-68
2024/04/13 10:39:56;;;;;;;3.33;2.70;;;22.00;99.90;;;;;;5445490;26;20918;-67
2024/04/13 10:42:39;;;;;;;5.80;2.92;;;22.00;99.90;;;;;;5449702;26;19999;-69
2024/04/13 10:45:16;;;;;;;6.53;2.63;;;22.00;99.80;;;;;;5450765;26;19999;-66
2024/04/13 10:47:43;;;;;;;5.97;2.72;;;22.20;99.30;;;;;;5450284;26;20051;-65
2024/04/13 10:50:17;;;;;;;5.57;2.75;;;22.10;99.30;;;;;;5452022;26;20427;-67
2024/04/13 10:52:43;;;;;;;5.38;2.30;;;22.10;99.10;;;;;;5450272;26;20014;-67
2024/04/13 10:55:13;;;;;;;4.70;2.83;;;22.10;98.90;;;;;;5452888;26;19994;-68
2024/04/13 10:57:42;;;;;;;5.82;2.47;;;22.10;99.20;;;;;;5451528;26;19999;-70
2024/04/13 11:00:08;;;;;;;5.60;2.60;;;22.10;99.10;;;;;;5452593;26;20471;-67
2024/04/13 11:02:37;;;;;;;5.35;2.53;;;22.30;98.50;;;;;;5450255;26;19995;-72
2024/04/13 11:05:07;;;;;;;5.88;2.63;;;22.20;98.50;;;;;;5450198;26;20014;-67
2024/04/13 11:07:34;;;;;;;3.58;2.50;;;22.30;98.60;;;;;;5449810;26;19998;-68
2024/04/13 11:10:02;;;;;;;4.07;2.63;;;22.10;98.50;;;;;;5451241;26;20017;-70
2024/04/13 11:12:29;;;;;;;5.40;2.40;;;22.40;98.90;;;;;;5452477;26;20001;-67
2024/04/13 11:14:55;;;;;;;;;;;22.40;98.80;;;;;;5451449;26;20139;-68
2024/04/13 11:17:21;;;;;;;4.70;2.50;;;22.60;98.40;;;;;;5450000;26;20318;-70
2024/04/13 11:19:47;;;;;;;4.53;3.03;;;22.70;98.20;;;;;;5451325;26;19999;-69
2024/04/13 11:22:13;;;;;;;6.47;2.93;;;22.60;98.10;;;;;;5451602;26;20010;-69
2024/04/13 11:24:41;;;;;;;5.35;2.55;;;22.70;98.30;;;;;;5448653;26;20316;-69
2024/04/13 11:27:07;;;;;;;4.55;2.33;;;22.60;98.10;;;;;;5451708;26;19995;-68
2024/04/13 11:29:34;;;;;;;4.28;2.80;;;22.70;98.40;;;;;;5450634;26;20027;-68
2024/04/13 11:32:00;;;;;;;;;;;22.80;98.40;;;;;;5452295;26;20002;-69
2024/04/13 11:34:26;;;;;;;6.15;2.67;;;22.80;98.30;;;;;;5452256;26;19992;-68
2024/04/13 11:37:05;;;;;;;4.55;2.40;;;23.00;97.50;;;;;;5509947;26;19999;-67
2024/04/13 11:39:34;;;;;;;4.97;2.75;;;23.20;97.20;;;;;;5449957;26;20346;-69
2024/04/13 11:42:07;;;;;;;3.30;2.45;;;23.20;97.30;;;;;;5448739;26;19995;-67
2024/04/13 11:44:36;;;;;;;5.45;2.63;;;23.30;96.60;;;;;;5450241;26;20048;-75
2024/04/13 11:47:02;;;;;;;4.32;2.40;;;23.30;95.90;;;;;;5451808;26;20079;-72
2024/04/13 11:49:28;;;;;;;3.78;2.40;;;23.50;95.60;;;;;;5451870;26;19995;-67
2024/04/13 11:51:54;;;;;;;6.07;2.55;;;23.50;95.60;;;;;;5479466;26;20002;-69
2024/04/13 11:54:20;;;;;;;5.00;2.28;;;23.60;95.70;;;;;;5451365;26;19991;-68
2024/04/13 11:56:46;;;;;;;3.80;2.83;;;23.50;95.70;;;;;;5449081;26;19994;-71
2024/04/13 11:59:15;;;;;;;5.87;2.57;;;23.70;95.50;;;;;;5420259;26;20001;-69
2024/04/13 12:01:41;;;;;;;3.17;2.45;;;23.60;95.30;;;;;;5448812;26;20386;-66
2024/04/13 12:04:07;;;;;;;5.27;2.77;;;23.70;94.90;;;;;;5450292;26;20072;-68
2024/04/13 12:06:33;;;;;;;2.38;2.17;;;23.90;94.90;;;;;;5451029;26;20005;-68
2024/04/13 12:09:02;;;;;;;6.00;2.40;;;23.90;93.80;;;;;;5448955;26;19999;-67
2024/04/13 12:11:31;;;;;;;3.88;2.25;;;24.00;93.50;;;;;;5451276;26;20002;-69
2024/04/13 12:13:57;;;;;;;3.90;2.17;;;23.90;93.00;;;;;;5450654;26;19995;-68
2024/04/13 12:16:24;;;;;;;3.95;2.20;;;24.00;93.40;;;;;;5451751;26;20063;-70
2024/04/13 12:18:51;;;;;;;4.68;2.55;;;23.90;93.20;;;;;;5450784;26;20325;-67
2024/04/13 12:21:19;;;;;;;;;;;24.20;93.20;;;;;;5452581;26;20026;-68
2024/04/13 12:23:45;;;;;;;6.15;3.08;;;24.30;92.60;;;;;;5450529;26;19932;-70
2024/04/13 12:26:11;;;;;;;4.15;2.20;;;24.40;91.80;;;;;;5420359;26;20026;-71
2024/04/13 12:28:38;;;;;;;3.72;2.30;;;24.40;91.30;;;;;;5510723;26;20002;-72
2024/04/13 12:31:04;;;;;;;5.05;1.98;;;24.30;91.00;;;;;;5451367;26;20027;-69
2024/04/13 12:33:30;;;;;;;2.35;2.15;;;24.60;91.10;;;;;;5452040;26;20001;-68
2024/04/13 12:35:58;;;;;;;3.30;2.13;;;24.70;90.40;;;;;;5449373;26;19999;-73
2024/04/13 12:38:27;;;;;;;3.40;2.30;;;24.60;88.70;;;;;;5449429;26;20017;-67
2024/04/13 12:40:54;;;;;;;3.63;1.90;;;24.80;87.90;;;;;;5450733;26;19995;-68
2024/04/13 12:43:20;;;;;;;3.08;1.75;;;24.20;87.60;;;;;;5451396;26;20442;-69
2024/04/13 12:45:45;;;;;;;5.60;2.33;;;24.80;88.20;;;;;;5450777;26;19990;-66